createdAt,value
2022-09-06T00:01:42.959Z,22.43
2022-09-06T00:04:15.455Z,22.41
2022-09-06T00:06:45.344Z,22.34
2022-09-06T00:09:15.028Z,22.33
2022-09-06T00:11:44.826Z,22.02
2022-09-06T00:14:17.060Z,22.13
2022-09-06T00:16:46.978Z,22.17
2022-09-06T00:19:16.668Z,22.09
2022-09-06T00:21:46.415Z,22.23
2022-09-06T00:24:16.419Z,21.96
2022-09-06T00:26:46.075Z,21.97
2022-09-06T00:29:18.335Z,21.85
2022-09-06T00:31:48.046Z,21.83
2022-09-06T00:34:17.718Z,21.52
2022-09-06T00:36:47.383Z,21.65
2022-09-06T00:39:17.167Z,21.66
2022-09-06T00:41:46.865Z,21.63
2022-09-06T00:44:19.372Z,21.66
2022-09-06T00:46:52.059Z,21.70
2022-09-06T00:49:25.742Z,21.63
2022-09-06T00:51:58.517Z,21.42
2022-09-06T00:54:28.967Z,21.60
2022-09-06T00:57:00.339Z,21.52
2022-09-06T00:59:36.248Z,21.54
2022-09-06T01:02:07.277Z,21.50
2022-09-06T01:04:37.436Z,21.40
2022-09-06T01:07:15.613Z,21.40
2022-09-06T01:09:59.261Z,21.48
2022-09-06T01:12:40.531Z,21.38
2022-09-06T01:15:25.914Z,21.35
2022-09-06T01:18:04.631Z,21.39
2022-09-06T01:20:56.067Z,21.37
2022-09-06T01:23:58.333Z,21.22
2022-09-06T01:26:52.893Z,21.29
2022-09-06T01:29:35.497Z,21.33
2022-09-06T01:32:16.788Z,21.38
2022-09-06T01:34:51.448Z,21.36
2022-09-06T01:37:22.985Z,21.36
2022-09-06T01:39:53.097Z,21.36
2022-09-06T01:42:26.688Z,21.34
2022-09-06T01:45:02.529Z,21.23
2022-09-06T01:47:40.890Z,21.28
2022-09-06T01:50:25.861Z,21.37
2022-09-06T01:53:07.181Z,21.23
2022-09-06T02:03:12.314Z,21.12
2022-09-06T02:05:47.469Z,20.75
2022-09-06T02:08:20.658Z,20.87
2022-09-06T02:10:55.599Z,20.95
2022-09-06T02:13:28.459Z,20.96
2022-09-06T02:16:03.782Z,20.94
2022-09-06T02:18:40.706Z,21.07
2022-09-06T02:21:13.286Z,21.06
2022-09-06T02:23:45.839Z,20.99
2022-09-06T02:26:21.096Z,20.92
2022-09-06T02:28:51.258Z,20.91
2022-09-06T02:31:24.788Z,20.91
2022-09-06T02:33:57.064Z,20.94
2022-09-06T02:36:27.286Z,20.84
2022-09-06T02:38:57.226Z,20.97
2022-09-06T02:41:27.655Z,21.00
2022-09-06T02:43:57.341Z,20.98
2022-09-06T02:46:27.059Z,20.97
2022-09-06T02:48:59.313Z,20.99
2022-09-06T02:51:28.913Z,21.04
2022-09-06T02:53:58.504Z,20.97
2022-09-06T02:56:28.086Z,20.85
2022-09-06T02:58:57.635Z,20.94
2022-09-06T03:01:27.208Z,20.82
2022-09-06T03:03:59.432Z,21.07
2022-09-06T03:06:29.558Z,21.05
2022-09-06T03:09:00.200Z,21.03
2022-09-06T03:11:30.022Z,21.12
2022-09-06T03:13:59.624Z,20.91
2022-09-06T03:16:29.373Z,20.96
2022-09-06T03:19:01.567Z,20.81
2022-09-06T03:21:31.202Z,20.85
2022-09-06T03:24:00.726Z,20.82
2022-09-06T03:26:30.731Z,20.78
2022-09-06T03:29:00.353Z,20.89
2022-09-06T03:31:29.966Z,20.88
2022-09-06T03:34:02.148Z,20.86
2022-09-06T03:36:31.848Z,20.80
2022-09-06T03:39:01.406Z,20.82
2022-09-06T03:41:30.943Z,20.80
2022-09-06T03:44:00.520Z,20.89
2022-09-06T03:46:30.922Z,20.80
2022-09-06T03:49:03.235Z,20.93
2022-09-06T03:51:32.807Z,20.82
2022-09-06T03:54:02.343Z,20.80
2022-09-06T03:56:31.978Z,20.66
2022-09-06T03:59:02.017Z,20.83
2022-09-06T04:01:32.046Z,20.91
2022-09-06T04:04:04.667Z,20.99
2022-09-06T04:06:34.271Z,20.89
2022-09-06T04:09:03.808Z,20.89
2022-09-06T04:11:33.370Z,20.75
2022-09-06T04:14:02.940Z,20.72
2022-09-06T04:16:32.568Z,20.50
2022-09-06T04:19:04.751Z,20.61
2022-09-06T04:21:34.626Z,20.80
2022-09-06T04:24:04.669Z,20.74
2022-09-06T04:26:34.238Z,20.67
2022-09-06T04:29:03.847Z,20.50
2022-09-06T04:31:33.455Z,20.57
2022-09-06T04:34:05.710Z,20.47
2022-09-06T04:36:35.264Z,20.37
2022-09-06T04:39:05.469Z,20.36
2022-09-06T04:41:35.098Z,20.15
2022-09-06T04:44:05.033Z,20.21
2022-09-06T04:46:34.592Z,19.36
2022-09-06T04:49:06.773Z,20.12
2022-09-06T04:51:37.414Z,20.27
2022-09-06T04:54:07.008Z,20.20
2022-09-06T04:56:36.582Z,20.15
2022-09-06T04:59:06.301Z,20.15
2022-09-06T05:01:35.886Z,20.03
2022-09-06T05:04:08.262Z,20.14
2022-09-06T05:06:39.277Z,20.05
2022-09-06T05:09:08.862Z,20.15
2022-09-06T05:11:38.774Z,20.08
2022-09-06T05:14:08.374Z,20.13
2022-09-06T05:16:38.079Z,20.12
2022-09-06T05:19:10.368Z,20.06
2022-09-06T05:21:39.930Z,20.23
2022-09-06T05:24:09.661Z,20.16
2022-09-06T05:26:39.426Z,20.08
2022-09-06T05:29:09.007Z,20.19
2022-09-06T05:31:38.899Z,20.15
2022-09-06T05:34:13.477Z,20.30
2022-09-06T05:36:43.172Z,20.18
2022-09-06T05:39:12.745Z,20.18
2022-09-06T05:41:42.390Z,20.15
2022-09-06T05:44:11.950Z,20.14
2022-09-06T05:46:45.290Z,20.29
2022-09-06T05:49:17.443Z,20.32
2022-09-06T05:51:47.008Z,20.28
2022-09-06T05:54:16.554Z,20.24
2022-09-06T05:56:46.130Z,20.16
2022-09-06T05:59:15.758Z,20.28
2022-09-06T06:01:51.114Z,20.52
2022-09-06T06:04:23.666Z,20.42
2022-09-06T06:06:53.645Z,20.35
2022-09-06T06:09:23.187Z,20.08
2022-09-06T06:11:52.762Z,20.06
2022-09-06T06:14:22.294Z,19.91
2022-09-06T06:16:52.069Z,19.70
2022-09-06T06:19:24.295Z,19.85
2022-09-06T06:21:53.868Z,19.81
2022-09-06T06:24:23.429Z,19.90
2022-09-06T06:26:53.101Z,19.69
2022-09-06T06:29:22.641Z,18.95
2022-09-06T06:31:52.250Z,18.70
2022-09-06T06:34:24.374Z,18.74
2022-09-06T06:36:53.950Z,18.79
2022-09-06T06:39:23.569Z,18.89
2022-09-06T06:41:53.451Z,18.73
2022-09-06T06:44:41.059Z,18.49
2022-09-06T06:47:11.768Z,18.83
2022-09-06T06:49:44.970Z,18.96
2022-09-06T06:52:14.661Z,18.91
2022-09-06T06:54:44.307Z,19.09
2022-09-06T06:57:13.942Z,19.18
2022-09-06T06:59:43.516Z,19.26
2022-09-06T07:02:15.859Z,19.41
2022-09-06T07:04:49.212Z,19.57
2022-09-06T07:07:36.614Z,19.54
2022-09-06T07:13:00.713Z,19.57
2022-09-06T07:15:30.498Z,19.27
2022-09-06T07:18:01.551Z,19.64
2022-09-06T07:26:18.152Z,19.56
2022-09-06T07:28:48.384Z,19.59
2022-09-06T07:34:09.488Z,19.63
2022-09-06T07:36:41.811Z,19.81
2022-09-06T07:39:12.480Z,19.76
2022-09-06T07:41:42.113Z,19.73
2022-09-06T07:44:12.808Z,19.66
2022-09-06T07:46:42.780Z,19.75
2022-09-06T07:49:12.419Z,19.78
2022-09-06T07:51:45.641Z,19.95
2022-09-06T07:54:31.766Z,19.84
2022-09-06T07:57:02.439Z,19.76
2022-09-06T07:59:32.082Z,19.62
2022-09-06T08:02:01.799Z,19.74
2022-09-06T08:04:31.547Z,19.62
2022-09-06T08:09:59.352Z,19.68
2022-09-06T08:12:30.931Z,19.40
2022-09-06T08:15:01.562Z,19.40
2022-09-06T08:17:35.226Z,19.62
2022-09-06T08:20:07.668Z,19.65
2022-09-06T08:22:39.816Z,19.59
2022-09-06T08:25:10.599Z,19.60
2022-09-06T08:27:40.167Z,19.46
2022-09-06T08:30:11.674Z,19.44
2022-09-06T08:32:42.828Z,19.54
2022-09-06T08:35:13.492Z,19.47
2022-09-06T08:37:45.657Z,19.34
2022-09-06T08:40:24.910Z,19.52
2022-09-06T08:42:54.801Z,19.55
2022-09-06T08:45:24.871Z,19.63
2022-09-06T08:47:54.576Z,19.69
2022-09-06T08:50:26.404Z,19.93
2022-09-06T08:53:16.840Z,20.00
2022-09-06T08:55:55.026Z,20.00
2022-09-06T08:58:40.688Z,20.08
2022-09-06T09:01:15.318Z,19.85
2022-09-06T09:03:49.193Z,20.08
2022-09-06T09:06:19.896Z,20.17
2022-09-06T09:09:03.518Z,19.90
2022-09-06T09:11:36.111Z,19.92
2022-09-06T09:14:08.700Z,20.06
2022-09-06T09:16:38.635Z,20.21
2022-09-06T09:19:09.483Z,20.30
2022-09-06T09:21:41.805Z,20.40
2022-09-06T09:24:16.087Z,20.55
2022-09-06T09:26:54.576Z,20.49
2022-09-06T09:29:28.690Z,20.34
2022-09-06T09:32:00.031Z,20.42
2022-09-06T09:34:34.158Z,20.62
2022-09-06T09:40:09.991Z,20.53
2022-09-06T09:42:40.862Z,20.79
2022-09-06T09:45:31.679Z,20.98
2022-09-06T09:48:20.359Z,21.21
2022-09-06T09:50:50.830Z,21.04
2022-09-06T09:53:23.457Z,21.30
2022-09-06T09:56:01.404Z,21.46
2022-09-06T09:58:35.730Z,21.35
2022-09-06T10:01:20.968Z,21.75
2022-09-06T10:09:37.306Z,21.69
2022-09-06T10:12:10.131Z,22.15
2022-09-06T10:14:44.917Z,22.33
2022-09-06T10:17:22.331Z,22.41
2022-09-06T10:19:52.994Z,22.26
2022-09-06T10:22:28.890Z,22.67
2022-09-06T10:25:27.904Z,22.79
2022-09-06T10:28:27.580Z,23.08
2022-09-06T10:31:32.804Z,23.18
2022-09-06T10:34:12.681Z,23.32
2022-09-06T10:36:50.940Z,23.23
2022-09-06T10:39:34.582Z,23.09
2022-09-06T10:42:18.935Z,23.27
2022-09-06T10:45:03.199Z,23.53
2022-09-06T10:47:40.547Z,23.42
2022-09-06T10:50:11.345Z,23.66
2022-09-06T10:52:47.438Z,23.76
2022-09-06T10:55:20.985Z,23.76
2022-09-06T11:00:50.158Z,23.80
2022-09-06T11:06:20.085Z,24.14
2022-09-06T11:09:00.040Z,24.05
2022-09-06T11:11:38.389Z,23.94
2022-09-06T11:14:12.512Z,24.11
2022-09-06T11:16:54.813Z,24.12
2022-09-06T11:19:31.212Z,24.10
2022-09-06T11:22:31.937Z,24.18
2022-09-06T11:25:26.146Z,24.26
2022-09-06T11:28:00.399Z,24.07
2022-09-06T11:30:34.493Z,24.14
2022-09-06T11:33:25.502Z,24.16
2022-09-06T11:35:56.862Z,24.20
2022-09-06T11:38:29.499Z,24.22
2022-09-06T11:41:03.965Z,24.28
2022-09-06T11:43:51.180Z,24.26
2022-09-06T11:46:51.224Z,24.53
2022-09-06T11:49:41.433Z,24.60
2022-09-06T11:52:41.309Z,24.63
2022-09-06T11:55:14.895Z,24.70
2022-09-06T11:57:45.520Z,24.52
2022-09-06T12:00:24.469Z,24.66
2022-09-06T12:06:21.898Z,24.69
2022-09-06T12:08:52.815Z,24.35
2022-09-06T12:11:37.527Z,24.79
2022-09-06T12:14:11.120Z,24.71
2022-09-06T12:17:11.523Z,24.92
2022-09-06T12:19:45.314Z,25.07
2022-09-06T12:22:46.137Z,25.15
2022-09-06T12:25:23.066Z,25.03
2022-09-06T12:27:57.025Z,25.08
2022-09-06T12:30:38.090Z,25.12
2022-09-06T12:33:13.940Z,25.13
2022-09-06T12:36:03.325Z,25.14
2022-09-06T12:38:35.493Z,24.94
2022-09-06T12:41:08.929Z,25.12
2022-09-06T12:43:41.973Z,25.32
2022-09-06T12:46:11.818Z,25.31
2022-09-06T12:48:44.485Z,25.31
2022-09-06T12:51:23.606Z,25.51
2022-09-06T12:53:56.633Z,25.39
2022-09-06T12:56:32.942Z,25.62
2022-09-06T12:59:17.233Z,25.73
2022-09-06T13:01:53.038Z,25.76
2022-09-06T13:04:30.195Z,25.78
2022-09-06T13:07:01.991Z,25.84
2022-09-06T13:09:33.076Z,25.80
2022-09-06T13:12:13.387Z,25.85
2022-09-06T13:14:43.519Z,26.03
2022-09-06T13:17:26.542Z,26.03
2022-09-06T13:19:58.191Z,25.91
2022-09-06T13:22:46.287Z,26.03
2022-09-06T13:25:20.871Z,26.04
2022-09-06T13:27:57.763Z,26.16
2022-09-06T13:30:42.769Z,26.13
2022-09-06T13:33:27.079Z,26.21
2022-09-06T13:36:09.504Z,26.24
2022-09-06T13:38:43.593Z,26.40
2022-09-06T13:41:42.052Z,26.44
2022-09-06T13:44:32.057Z,26.55
2022-09-06T13:47:05.994Z,26.59
2022-09-06T13:49:36.741Z,26.65
2022-09-06T13:52:08.205Z,26.68
2022-09-06T13:54:40.046Z,26.64
2022-09-06T13:57:10.743Z,26.64
2022-09-06T13:59:43.101Z,26.67
2022-09-06T14:02:16.039Z,26.57
2022-09-06T14:04:45.814Z,26.63
2022-09-06T14:07:16.574Z,26.58
2022-09-06T14:09:51.244Z,26.77
2022-09-06T14:12:21.001Z,26.89
2022-09-06T14:14:53.278Z,26.91
2022-09-06T14:17:23.285Z,27.02
2022-09-06T14:19:53.075Z,27.15
2022-09-06T14:22:23.821Z,27.11
2022-09-06T14:24:53.854Z,27.05
2022-09-06T14:27:24.752Z,27.21
2022-09-06T14:29:57.362Z,27.18
2022-09-06T14:32:27.306Z,27.11
2022-09-06T14:34:56.982Z,27.05
2022-09-06T14:37:26.782Z,27.13
2022-09-06T14:39:56.733Z,27.16
2022-09-06T14:42:28.436Z,27.17
2022-09-06T14:45:01.818Z,27.09
2022-09-06T14:47:31.873Z,26.79
2022-09-06T14:50:10.752Z,27.19
2022-09-06T14:52:40.622Z,27.16
2022-09-06T14:55:11.153Z,27.18
2022-09-06T14:57:46.198Z,27.10
2022-09-06T15:00:19.403Z,27.05
2022-09-06T15:02:49.324Z,26.95
2022-09-06T15:05:19.234Z,26.69
2022-09-06T15:07:48.983Z,26.92
2022-09-06T15:10:19.428Z,27.02
2022-09-06T15:12:50.123Z,27.05
2022-09-06T15:15:23.875Z,27.08
2022-09-06T15:17:55.003Z,27.05
2022-09-06T15:20:26.365Z,26.99
2022-09-06T15:23:21.802Z,26.96
2022-09-06T15:25:56.483Z,26.94
2022-09-06T15:28:27.174Z,26.88
2022-09-06T15:31:00.686Z,27.05
2022-09-06T15:33:31.787Z,27.19
2022-09-06T15:36:06.575Z,27.19
2022-09-06T15:38:40.362Z,27.09
2022-09-06T15:41:12.958Z,27.17
2022-09-06T15:43:52.076Z,27.24
2022-09-06T15:46:44.797Z,27.28
2022-09-06T15:49:18.493Z,27.06
2022-09-06T15:51:50.071Z,27.02
2022-09-06T15:54:41.879Z,27.05
2022-09-06T15:57:12.016Z,26.86
2022-09-06T15:59:43.500Z,26.64
2022-09-06T16:02:16.181Z,27.04
2022-09-06T16:04:49.403Z,26.94
2022-09-06T16:07:19.670Z,26.91
2022-09-06T16:09:49.387Z,26.99
2022-09-06T16:12:19.272Z,26.95
2022-09-06T16:14:51.043Z,26.95
2022-09-06T16:17:27.464Z,26.94
2022-09-06T16:19:59.206Z,26.83
2022-09-06T16:22:30.764Z,26.73
2022-09-06T16:25:00.435Z,26.78
2022-09-06T16:27:30.318Z,26.63
2022-09-06T16:30:00.092Z,26.56
2022-09-06T16:32:32.480Z,26.49
2022-09-06T16:35:06.776Z,26.36
2022-09-06T16:37:38.548Z,26.51
2022-09-06T16:40:10.057Z,26.55
2022-09-06T16:42:39.883Z,26.43
2022-09-06T16:45:20.044Z,26.41
2022-09-06T16:47:55.873Z,26.33
2022-09-06T16:50:27.458Z,26.38
2022-09-06T16:52:57.247Z,26.24
2022-09-06T16:55:28.186Z,26.27
2022-09-06T16:58:01.201Z,26.17
2022-09-06T17:00:31.191Z,26.03
2022-09-06T17:03:03.501Z,26.05
2022-09-06T17:05:34.553Z,25.96
2022-09-06T17:08:04.422Z,25.75
2022-09-06T17:10:42.503Z,25.77
2022-09-06T17:13:14.332Z,25.71
2022-09-06T17:15:56.684Z,25.72
2022-09-06T17:18:31.048Z,25.78
2022-09-06T17:21:05.033Z,25.76
2022-09-06T17:23:35.226Z,25.47
2022-09-06T17:26:07.035Z,25.66
2022-09-06T17:28:37.435Z,25.71
2022-09-06T17:31:09.298Z,25.67
2022-09-06T17:33:41.704Z,25.56
2022-09-06T17:36:13.749Z,25.54
2022-09-06T17:38:44.888Z,25.45
2022-09-06T17:41:22.361Z,25.37
2022-09-06T17:43:55.703Z,25.29
2022-09-06T17:46:28.852Z,25.16
2022-09-06T17:49:02.923Z,24.97
2022-09-06T17:51:35.754Z,25.06
2022-09-06T17:54:06.014Z,25.01
2022-09-06T17:56:38.102Z,24.96
2022-09-06T17:59:09.682Z,24.53
2022-09-06T18:01:41.270Z,24.62
2022-09-06T18:04:14.903Z,24.56
2022-09-06T18:06:46.847Z,24.49
2022-09-06T18:09:18.878Z,24.45
2022-09-06T18:11:50.639Z,24.20
2022-09-06T18:14:21.945Z,24.17
2022-09-06T18:16:54.582Z,24.09
2022-09-06T18:19:27.923Z,24.23
2022-09-06T18:22:01.268Z,24.10
2022-09-06T18:24:31.127Z,24.01
2022-09-06T18:27:02.850Z,23.84
2022-09-06T18:29:33.109Z,23.78
2022-09-06T18:32:03.020Z,23.64
2022-09-06T18:34:35.565Z,23.48
2022-09-06T18:37:05.861Z,23.49
2022-09-06T18:39:35.640Z,23.43
2022-09-06T18:42:11.112Z,23.41
2022-09-06T18:44:43.784Z,23.33
2022-09-06T18:47:14.879Z,23.35
2022-09-06T18:49:52.885Z,23.00
2022-09-06T18:52:24.605Z,23.32
2022-09-06T18:54:54.351Z,23.11
2022-09-06T18:57:25.082Z,23.12
2022-09-06T18:59:58.264Z,23.10
2022-09-06T19:02:28.832Z,22.97
2022-09-06T19:05:01.195Z,22.84
2022-09-06T19:07:30.870Z,22.85
2022-09-06T19:10:00.663Z,22.77
2022-09-06T19:12:30.387Z,22.74
2022-09-06T19:15:01.185Z,22.58
2022-09-06T19:17:31.205Z,22.53
2022-09-06T19:20:03.549Z,22.53
2022-09-06T19:22:33.359Z,22.44
2022-09-06T19:25:03.180Z,22.46
2022-09-06T19:27:34.594Z,22.28
2022-09-06T19:30:07.180Z,22.16
2022-09-06T19:32:37.144Z,22.29
2022-09-06T19:35:15.651Z,22.30
2022-09-06T19:37:45.421Z,22.13
2022-09-06T19:40:16.243Z,21.96
2022-09-06T19:42:47.113Z,22.07
2022-09-06T19:45:18.160Z,22.09
2022-09-06T19:47:47.843Z,21.91
2022-09-06T19:50:21.287Z,21.95
2022-09-06T19:52:50.987Z,21.97
2022-09-06T19:55:20.678Z,21.83
2022-09-06T19:57:50.354Z,21.73
2022-09-06T20:00:20.155Z,21.73
2022-09-06T20:02:49.974Z,21.71
2022-09-06T20:05:22.359Z,21.79
2022-09-06T20:07:52.319Z,21.62
2022-09-06T20:10:22.328Z,21.52
2022-09-06T20:12:54.086Z,21.69
2022-09-06T20:15:26.871Z,21.67
2022-09-06T20:17:56.645Z,21.61
2022-09-06T20:20:29.054Z,21.49
2022-09-06T20:22:58.752Z,21.55
2022-09-06T20:25:28.768Z,21.42
2022-09-06T20:27:58.709Z,21.26
2022-09-06T20:30:30.218Z,21.36
2022-09-06T20:33:00.150Z,21.26
2022-09-06T20:35:37.974Z,21.36
2022-09-06T20:38:07.662Z,21.35
2022-09-06T20:40:38.502Z,21.38
2022-09-06T20:43:08.239Z,21.22
2022-09-06T20:45:40.228Z,21.21
2022-09-06T20:48:10.993Z,21.11
2022-09-06T20:50:44.359Z,21.26
2022-09-06T20:53:19.269Z,21.05
2022-09-06T20:55:58.578Z,21.16
2022-09-06T20:58:28.657Z,20.87
2022-09-06T21:00:58.854Z,21.07
2022-09-06T21:03:29.501Z,21.08
2022-09-06T21:06:03.162Z,20.89
2022-09-06T21:08:35.038Z,20.99
2022-09-06T21:11:07.888Z,20.93
2022-09-06T21:13:38.352Z,20.73
2022-09-06T21:16:09.057Z,20.85
2022-09-06T21:18:39.306Z,20.81
2022-09-06T21:21:12.718Z,20.91
2022-09-06T21:23:42.435Z,20.79
2022-09-06T21:26:15.889Z,20.93
2022-09-06T21:28:47.492Z,20.82
2022-09-06T21:31:19.010Z,20.88
2022-09-06T21:33:52.623Z,20.87
2022-09-06T21:36:29.287Z,20.91
2022-09-06T21:39:00.247Z,20.69
2022-09-06T21:41:30.918Z,20.78
2022-09-06T21:44:02.730Z,20.81
2022-09-06T21:46:34.557Z,20.81
2022-09-06T21:49:07.176Z,20.61
2022-09-06T21:51:40.104Z,20.75
2022-09-06T21:54:09.952Z,20.72
2022-09-06T21:56:41.183Z,20.66
2022-09-06T21:59:12.106Z,20.45
2022-09-06T22:01:45.248Z,20.62
2022-09-06T22:04:15.201Z,20.67
2022-09-06T22:06:47.646Z,20.77
2022-09-06T22:09:17.345Z,20.77
2022-09-06T22:11:47.287Z,20.77
2022-09-06T22:14:17.774Z,20.81
2022-09-06T22:16:47.512Z,20.79
2022-09-06T22:19:17.227Z,20.87
2022-09-06T22:21:49.461Z,20.91
2022-09-06T22:24:19.382Z,20.89
2022-09-06T22:26:49.303Z,20.83
2022-09-06T22:29:18.982Z,20.83
2022-09-06T22:31:48.678Z,20.78
2022-09-06T22:34:18.367Z,20.75
2022-09-06T22:36:50.845Z,20.84
2022-09-06T22:39:20.510Z,20.80
2022-09-06T22:41:50.178Z,20.83
2022-09-06T22:44:20.149Z,20.75
2022-09-06T22:46:50.088Z,20.43
2022-09-06T22:49:19.857Z,20.64
2022-09-06T22:51:53.663Z,20.59
2022-09-06T22:54:23.412Z,20.61
2022-09-06T22:56:53.107Z,20.60
2022-09-06T22:59:22.988Z,20.58
2022-09-06T23:01:52.714Z,20.55
2022-09-06T23:04:22.619Z,20.48
2022-09-06T23:06:54.868Z,20.47
2022-09-06T23:09:24.548Z,20.53
2022-09-06T23:11:54.400Z,20.53
2022-09-06T23:14:24.078Z,20.05
2022-09-06T23:16:53.726Z,20.35
2022-09-06T23:19:23.393Z,20.49
2022-09-06T23:21:55.664Z,20.44
2022-09-06T23:24:25.481Z,20.42
2022-09-06T23:26:55.596Z,20.51
2022-09-06T23:29:25.373Z,20.46
2022-09-06T23:31:55.180Z,20.38
2022-09-06T23:34:24.957Z,20.33
2022-09-06T23:37:00.091Z,20.41
2022-09-06T23:39:30.384Z,20.39
2022-09-06T23:42:02.108Z,20.24
2022-09-06T23:44:31.886Z,20.27
2022-09-06T23:47:01.834Z,20.24
2022-09-06T23:49:31.618Z,20.17
2022-09-06T23:52:04.092Z,20.15
2022-09-06T23:54:33.756Z,20.18
2022-09-06T23:57:03.420Z,20.15
2022-09-06T23:59:34.838Z,20.13
